createdAt,value
2022-08-05T00:00:05.101Z,3.1
2022-08-05T00:05:05.599Z,3.1
2022-08-05T00:10:05.109Z,2.9
2022-08-05T00:15:14.136Z,2.9
2022-08-05T00:20:05.109Z,3.3
2022-08-05T00:25:08.312Z,3.3
2022-08-05T00:30:05.144Z,3.1
2022-08-05T00:35:07.054Z,3.1
2022-08-05T00:40:05.195Z,2.7
2022-08-05T00:45:05.218Z,2.7
2022-08-05T00:50:05.120Z,2.9
2022-08-05T00:55:05.117Z,2.9
2022-08-05T01:00:05.126Z,2.7
2022-08-05T01:05:05.202Z,2.7
2022-08-05T01:10:05.101Z,2.8
2022-08-05T01:15:05.278Z,2.8
2022-08-05T01:20:05.104Z,2.8
2022-08-05T01:25:05.097Z,2.8
2022-08-05T01:30:05.100Z,3.3
2022-08-05T01:35:10.516Z,3.3
2022-08-05T01:40:05.137Z,3.2
2022-08-05T01:45:05.116Z,3.2
2022-08-05T01:50:05.102Z,3.4
2022-08-05T01:55:05.573Z,3.4
2022-08-05T02:00:05.099Z,3.6
2022-08-05T02:05:05.092Z,3.6
2022-08-05T02:10:05.108Z,4
2022-08-05T02:15:05.098Z,4
2022-08-05T02:20:05.110Z,4.2
2022-08-05T02:25:05.099Z,4.2
2022-08-05T02:30:05.106Z,4
2022-08-05T02:35:09.773Z,4
2022-08-05T02:40:05.119Z,4.5
2022-08-05T02:45:05.111Z,4.5
2022-08-05T02:50:05.102Z,4.3
2022-08-05T02:55:06.617Z,4.3
2022-08-05T03:00:05.120Z,4.7
2022-08-05T03:05:05.108Z,4.7
2022-08-05T03:10:05.095Z,4.8
2022-08-05T03:15:06.819Z,4.8
2022-08-05T03:20:05.111Z,4.7
2022-08-05T03:25:11.818Z,4.7
2022-08-05T03:30:07.859Z,5.3
2022-08-05T03:35:05.611Z,5.3
2022-08-05T03:40:05.265Z,5.2
2022-08-05T03:45:22.275Z,5.2
2022-08-05T03:50:05.117Z,4.8
2022-08-05T03:55:54.364Z,4.8
2022-08-05T04:00:05.267Z,5.2
2022-08-05T04:05:05.115Z,5.2
2022-08-05T04:10:05.113Z,4.9
2022-08-05T04:15:05.106Z,4.9
2022-08-05T04:20:05.134Z,5.3
2022-08-05T04:25:05.127Z,5.3
2022-08-05T04:30:05.126Z,4.9
2022-08-05T04:35:05.128Z,4.9
2022-08-05T04:40:05.123Z,4.9
2022-08-05T04:45:05.152Z,4.9
2022-08-05T04:50:10.995Z,4.3
2022-08-05T04:55:05.361Z,4.3
2022-08-05T05:00:05.102Z,4.6
2022-08-05T05:05:17.068Z,4.6
2022-08-05T05:10:05.099Z,4.4
2022-08-05T05:15:05.121Z,4.4
2022-08-05T05:20:05.102Z,4.3
2022-08-05T05:25:16.332Z,4.3
2022-08-05T05:30:05.345Z,4.4
2022-08-05T05:35:05.090Z,4.4
2022-08-05T05:40:05.095Z,4.3
2022-08-05T05:45:05.103Z,4.3
2022-08-05T05:50:05.107Z,4.2
2022-08-05T05:55:05.965Z,4.2
2022-08-05T06:00:05.102Z,3.6
2022-08-05T06:05:10.326Z,3.6
2022-08-05T06:10:10.119Z,3.5
2022-08-05T06:15:05.103Z,3.5
2022-08-05T06:20:05.107Z,3.4
2022-08-05T06:25:24.866Z,3.4
2022-08-05T06:30:18.192Z,3.5
2022-08-05T06:35:05.748Z,3.5
2022-08-05T06:40:05.109Z,3.7
2022-08-05T06:45:05.202Z,3.7
2022-08-05T06:50:05.492Z,3.3
2022-08-05T06:55:05.103Z,3.3
2022-08-05T07:00:05.107Z,3.4
2022-08-05T07:05:05.094Z,3.4
2022-08-05T07:10:05.097Z,3.1
2022-08-05T07:15:05.098Z,3.1
2022-08-05T07:20:31.161Z,3.3
2022-08-05T07:25:09.762Z,3.3
2022-08-05T07:30:22.555Z,3.2
2022-08-05T07:35:56.437Z,3.2
2022-08-05T07:40:27.207Z,3.4
2022-08-05T07:45:09.244Z,3.4
2022-08-05T07:50:06.450Z,3.3
2022-08-05T07:55:15.667Z,3.3
2022-08-05T08:00:05.110Z,3.5
2022-08-05T08:05:05.112Z,3.5
2022-08-05T08:10:05.120Z,3.5
2022-08-05T08:15:05.262Z,3.5
2022-08-05T08:20:23.201Z,3.4
2022-08-05T08:25:15.927Z,3.4
2022-08-05T08:30:18.927Z,3.5
2022-08-05T08:35:05.100Z,3.5
2022-08-05T08:40:05.157Z,3.5
2022-08-05T08:45:21.735Z,3.5
2022-08-05T08:50:14.790Z,3.3
2022-08-05T08:55:13.113Z,3.3
2022-08-05T09:00:05.098Z,3
2022-08-05T09:05:17.130Z,3
2022-08-05T09:10:05.108Z,3.3
2022-08-05T09:15:05.634Z,3.3
2022-08-05T09:20:05.650Z,3.3
2022-08-05T09:25:13.639Z,3.3
2022-08-05T09:30:06.615Z,3.5
2022-08-05T09:35:05.110Z,3.5
2022-08-05T09:40:05.154Z,3.4
2022-08-05T09:45:18.100Z,3.4
2022-08-05T09:50:05.097Z,3.5
2022-08-05T09:55:06.213Z,3.5
2022-08-05T10:00:07.804Z,3.7
2022-08-05T10:05:05.096Z,3.7
2022-08-05T10:10:14.750Z,3.7
2022-08-05T10:15:05.105Z,3.7
2022-08-05T10:20:09.858Z,3.6
2022-08-05T10:25:05.095Z,3.6
2022-08-05T10:30:06.195Z,3.3
2022-08-05T10:35:05.223Z,3.3
2022-08-05T10:40:17.740Z,3.6
2022-08-05T10:45:09.722Z,3.6
2022-08-05T10:50:20.899Z,3.6
2022-08-05T10:55:05.115Z,3.6
2022-08-05T11:00:08.270Z,3.3
2022-08-05T11:05:05.108Z,3.3
2022-08-05T11:10:09.810Z,3.1
2022-08-05T11:15:11.493Z,3.1
2022-08-05T11:20:09.572Z,3.5
2022-08-05T11:25:16.751Z,3.5
2022-08-05T11:30:05.117Z,3
2022-08-05T11:35:05.110Z,3
2022-08-05T11:40:05.195Z,2.9
2022-08-05T11:45:05.306Z,2.9
2022-08-05T11:50:05.108Z,3.1
2022-08-05T11:55:07.251Z,3.1
2022-08-05T12:00:05.096Z,2.4
2022-08-05T12:05:06.602Z,2.4
2022-08-05T12:10:09.355Z,2.4
2022-08-05T12:15:05.094Z,2.4
2022-08-05T12:20:17.338Z,2.5
2022-08-05T12:25:05.110Z,2.5
2022-08-05T12:30:05.100Z,2.6
2022-08-05T12:35:05.104Z,2.6
2022-08-05T12:40:10.364Z,2.3
2022-08-05T12:45:08.856Z,2.3
2022-08-05T12:50:06.294Z,2.7
2022-08-05T12:55:05.091Z,2.7
2022-08-05T13:01:59.295Z,2.8
2022-08-05T13:05:05.103Z,2.8
2022-08-05T13:10:05.101Z,3.3
2022-08-05T13:15:07.504Z,3.3
2022-08-05T13:20:05.109Z,3.1
2022-08-05T13:25:06.098Z,3.1
2022-08-05T13:30:32.456Z,3.3
2022-08-05T13:35:05.091Z,3.3
2022-08-05T13:40:13.282Z,3.3
2022-08-05T13:45:05.092Z,3.3
2022-08-05T13:50:06.551Z,3.5
2022-08-05T13:55:07.564Z,3.5
2022-08-05T14:00:05.107Z,3.5
2022-08-05T14:05:05.100Z,3.5
2022-08-05T14:10:05.108Z,3.2
2022-08-05T14:15:05.812Z,3.2
2022-08-05T14:20:05.152Z,3.2
2022-08-05T14:25:06.292Z,3.2
2022-08-05T14:30:05.107Z,3.2
2022-08-05T14:35:05.101Z,3.2
2022-08-05T14:40:05.162Z,3.4
2022-08-05T14:45:05.102Z,3.4
2022-08-05T14:50:12.870Z,4.2
2022-08-05T14:55:05.099Z,4.2
2022-08-05T15:00:05.107Z,4
2022-08-05T15:05:08.657Z,4
2022-08-05T15:10:05.115Z,4.3
2022-08-05T15:15:05.097Z,4.3
2022-08-05T15:20:05.116Z,4.6
2022-08-05T15:25:11.740Z,4.6
2022-08-05T15:30:05.117Z,5.1
2022-08-05T15:35:10.089Z,5.1
2022-08-05T15:40:42.875Z,4.8
2022-08-05T15:45:06.120Z,4.8
2022-08-05T15:50:05.108Z,5.1
2022-08-05T15:55:05.099Z,5.1
2022-08-05T16:00:05.110Z,5.1
2022-08-05T16:05:05.182Z,5.1
2022-08-05T16:10:05.094Z,5.1
2022-08-05T16:15:05.103Z,5.1
2022-08-05T16:20:11.387Z,5.4
2022-08-05T16:25:05.495Z,5.4
2022-08-05T16:30:05.107Z,5.6
2022-08-05T16:35:05.101Z,5.6
2022-08-05T16:40:07.244Z,5.9
2022-08-05T16:45:06.119Z,5.9
2022-08-05T16:50:05.103Z,6.9
2022-08-05T16:55:05.110Z,6.9
2022-08-05T17:00:07.814Z,6.9
2022-08-05T17:05:05.099Z,6.9
2022-08-05T17:10:05.099Z,9.1
2022-08-05T17:15:05.111Z,9.1
2022-08-05T17:20:05.107Z,8.2
2022-08-05T17:25:09.648Z,8.2
2022-08-05T17:30:07.004Z,9.4
2022-08-05T17:35:05.102Z,9.4
2022-08-05T17:40:05.192Z,8.5
2022-08-05T17:45:10.025Z,8.5
2022-08-05T17:50:11.061Z,8.6
2022-08-05T17:55:07.961Z,8.6
2022-08-05T18:00:06.046Z,8.2
2022-08-05T18:05:06.516Z,8.2
2022-08-05T18:10:08.866Z,8.2
2022-08-05T18:15:05.109Z,8.2
2022-08-05T18:20:05.111Z,7.8
2022-08-05T18:25:05.103Z,7.8
2022-08-05T18:30:05.107Z,10.1
2022-08-05T18:35:05.349Z,10.1
2022-08-05T18:40:31.254Z,6.9
2022-08-05T18:45:05.160Z,6.9
2022-08-05T18:50:05.104Z,6.5
2022-08-05T18:55:05.109Z,6.5
2022-08-05T19:00:07.759Z,5.8
2022-08-05T19:06:03.456Z,5.8
2022-08-05T19:10:08.193Z,5.5
2022-08-05T19:15:05.110Z,5.5
2022-08-05T19:20:05.111Z,5.4
2022-08-05T19:25:05.095Z,5.4
2022-08-05T19:30:05.107Z,5.6
2022-08-05T19:35:05.756Z,5.6
2022-08-05T19:40:08.121Z,5.5
2022-08-05T19:45:05.791Z,5.5
2022-08-05T19:50:06.128Z,4.5
2022-08-05T19:55:06.682Z,4.5
2022-08-05T20:00:05.846Z,3.8
2022-08-05T20:05:05.114Z,3.8
2022-08-05T20:10:11.841Z,3.3
2022-08-05T20:15:05.108Z,3.3
2022-08-05T20:20:09.297Z,3.1
2022-08-05T20:25:05.097Z,3.1
2022-08-05T20:30:05.114Z,2.4
2022-08-05T20:35:05.102Z,2.4
2022-08-05T20:40:05.186Z,2.3
2022-08-05T20:45:05.211Z,2.3
2022-08-05T20:50:05.399Z,2.2
2022-08-05T20:55:55.923Z,2.2
2022-08-05T21:00:10.865Z,2.3
2022-08-05T21:05:05.111Z,2.3
2022-08-05T21:10:05.100Z,2.4
2022-08-05T21:15:05.096Z,2.4
2022-08-05T21:20:09.830Z,2.3
2022-08-05T21:25:05.905Z,2.3
2022-08-05T21:30:05.110Z,2.2
2022-08-05T21:35:06.779Z,2.2
2022-08-05T21:40:05.783Z,2.4
2022-08-05T21:45:05.098Z,2.4
2022-08-05T21:50:05.100Z,2.2
2022-08-05T21:55:06.580Z,2.2
2022-08-05T22:00:06.879Z,2
2022-08-05T22:05:05.106Z,2
2022-08-05T22:10:05.122Z,2.2
2022-08-05T22:15:05.103Z,2.2
2022-08-05T22:20:11.435Z,2.1
2022-08-05T22:25:05.100Z,2.1
2022-08-05T22:30:05.118Z,2.4
2022-08-05T22:35:05.109Z,2.4
2022-08-05T22:40:05.158Z,2.2
2022-08-05T22:45:05.100Z,2.2
2022-08-05T22:50:18.718Z,2.3
2022-08-05T22:55:18.543Z,2.3
2022-08-05T23:00:05.106Z,1.8
2022-08-05T23:05:05.285Z,1.8
2022-08-05T23:10:05.128Z,2
2022-08-05T23:15:08.613Z,2
2022-08-05T23:20:05.109Z,1.9
2022-08-05T23:25:05.102Z,1.9
2022-08-05T23:30:08.123Z,1.9
2022-08-05T23:35:05.099Z,1.9
2022-08-05T23:40:07.577Z,2
2022-08-05T23:45:05.101Z,2
2022-08-05T23:50:09.479Z,2.1
2022-08-05T23:55:05.210Z,2.1
